Time;durP1;ratioP1;P1;durP2;ratioP2;P2;SDS_P1;SDS_P2;PMS_P1;PMS_P2;Temp;Humidity;BMP_temperature;BMP_pressure;BME280_temperature;BME280_humidity;BME280_pressure;Samples;Min_cycle;Max_cycle;Signal;HPM_P1;HPM_P2
2022/10/13 00:01:17;;;;;;;30.07;21.77;;;12.60;99.90;;;;;;4994217;28;20447;-86
2022/10/13 00:03:45;;;;;;;28.83;21.97;;;12.60;99.90;;;;;;4994497;28;20454;-86
2022/10/13 00:06:11;;;;;;;27.57;20.37;;;12.50;99.90;;;;;;4994191;28;20453;-85
2022/10/13 00:08:39;;;;;;;25.33;20.60;;;12.50;99.90;;;;;;4993382;28;20869;-86
2022/10/13 00:11:11;;;;;;;22.53;19.53;;;12.50;99.90;;;;;;4994612;28;20802;-85
2022/10/13 00:13:38;;;;;;;27.13;22.77;;;12.50;99.90;;;;;;5016543;28;20478;-85
2022/10/13 00:16:07;;;;;;;27.23;21.13;;;12.50;99.90;;;;;;5004808;28;20440;-85
2022/10/13 00:18:34;;;;;;;29.53;21.20;;;12.50;99.90;;;;;;4994615;28;20836;-85
2022/10/13 00:21:01;;;;;;;26.40;20.63;;;12.50;99.90;;;;;;4994091;28;20893;-85
2022/10/13 00:23:28;;;;;;;24.97;20.70;;;12.50;99.90;;;;;;4994229;28;20470;-85
2022/10/13 00:25:55;;;;;;;31.33;21.47;;;12.50;99.90;;;;;;5002033;28;20447;-85
2022/10/13 00:28:21;;;;;;;26.10;19.33;;;12.50;99.90;;;;;;4999134;28;20487;-85
2022/10/13 00:30:48;;;;;;;23.77;19.93;;;12.50;99.90;;;;;;4993423;28;20459;-85
2022/10/13 00:33:16;;;;;;;27.97;22.13;;;12.50;99.90;;;;;;4993304;28;20517;-85
2022/10/13 00:35:44;;;;;;;28.47;20.60;;;12.50;99.90;;;;;;4993493;28;20826;-85
2022/10/13 00:38:11;;;;;;;29.80;21.20;;;12.50;99.90;;;;;;4992721;28;20443;-85
2022/10/13 00:40:46;;;;;;;25.53;22.10;;;12.50;99.90;;;;;;4992269;28;20945;-85
2022/10/13 00:43:17;;;;;;;30.13;23.40;;;12.60;99.90;;;;;;4992991;28;20447;-85
2022/10/13 00:45:44;;;;;;;28.03;21.87;;;12.50;99.90;;;;;;4993412;28;20447;-85
2022/10/13 00:48:12;;;;;;;29.70;23.73;;;12.50;99.90;;;;;;4992499;28;21080;-85
2022/10/13 00:50:42;;;;;;;29.73;22.57;;;12.50;99.90;;;;;;4993076;28;20451;-85
2022/10/13 00:53:10;;;;;;;25.47;22.73;;;12.50;99.90;;;;;;4993340;28;20479;-85
2022/10/13 00:55:39;;;;;;;27.60;22.27;;;12.50;99.90;;;;;;4993069;28;20948;-85
2022/10/13 00:58:09;;;;;;;29.53;23.10;;;12.40;99.90;;;;;;4992812;28;20440;-86
2022/10/13 01:00:36;;;;;;;34.93;22.57;;;12.40;99.90;;;;;;4993359;28;20790;-85
2022/10/13 01:03:03;;;;;;;28.27;23.13;;;12.30;99.90;;;;;;4993231;28;20443;-85
2022/10/13 01:05:30;;;;;;;31.00;25.90;;;12.40;99.90;;;;;;4995007;28;20462;-85
2022/10/13 01:08:00;;;;;;;28.30;21.77;;;12.30;99.90;;;;;;4993230;28;20491;-85
2022/10/13 01:10:38;;;;;;;33.13;25.47;;;12.20;99.90;;;;;;4992682;28;20471;-85
2022/10/13 01:13:13;;;;;;;36.53;26.00;;;12.20;99.90;;;;;;4994734;28;20483;-85
2022/10/13 01:15:45;;;;;;;34.33;24.43;;;12.10;99.90;;;;;;5016241;28;20429;-85
2022/10/13 01:18:19;;;;;;;32.30;25.13;;;12.20;99.90;;;;;;5017497;28;20458;-84
2022/10/13 01:21:06;;;;;;;37.27;27.17;;;12.20;99.90;;;;;;5015930;28;20449;-85
2022/10/13 01:24:08;;;;;;;30.93;25.67;;;12.20;99.90;;;;;;4988235;28;20466;-85
2022/10/13 01:27:12;;;;;;;35.17;25.10;;;12.20;99.90;;;;;;5018150;28;20445;-84
2022/10/13 01:30:04;;;;;;;32.50;24.87;;;12.20;99.90;;;;;;5008654;28;20466;-85
2022/10/13 01:32:41;;;;;;;29.30;23.00;;;12.10;99.90;;;;;;5017140;28;20523;-84
2022/10/13 01:35:12;;;;;;;34.50;26.07;;;12.10;99.90;;;;;;5014245;28;20444;-84
2022/10/13 01:37:45;;;;;;;31.37;24.33;;;12.10;99.90;;;;;;4993861;28;20962;-85
2022/10/13 01:40:18;;;;;;;31.70;25.20;;;12.00;99.90;;;;;;4992861;28;20467;-85
2022/10/13 01:42:53;;;;;;;31.03;23.97;;;12.00;99.90;;;;;;4993010;28;20428;-85
2022/10/13 01:45:26;;;;;;;31.70;25.83;;;12.00;99.90;;;;;;4993388;28;20443;-85
2022/10/13 01:47:53;;;;;;;36.23;25.97;;;11.90;99.90;;;;;;4997384;28;20506;-85
2022/10/13 01:50:20;;;;;;;33.53;25.70;;;12.10;99.90;;;;;;5016812;28;20466;-85
2022/10/13 01:52:49;;;;;;;34.93;26.10;;;12.10;99.90;;;;;;5012835;28;20443;-85
2022/10/13 01:55:16;;;;;;;42.70;26.43;;;12.30;99.90;;;;;;5003083;28;20451;-85
2022/10/13 01:57:44;;;;;;;34.50;25.60;;;12.30;99.90;;;;;;5000090;28;20667;-85
2022/10/13 02:00:13;;;;;;;35.40;26.90;;;12.40;99.90;;;;;;4997927;28;20477;-85
2022/10/13 02:02:51;;;;;;;37.80;27.57;;;12.50;99.90;;;;;;4998933;28;20451;-85
2022/10/13 02:05:26;;;;;;;30.37;23.73;;;12.60;99.90;;;;;;4996434;28;20447;-85
2022/10/13 02:07:58;;;;;;;35.83;25.33;;;12.60;99.90;;;;;;4995746;28;20482;-85
2022/10/13 02:10:31;;;;;;;32.23;24.97;;;12.50;99.90;;;;;;4995968;28;20552;-85
2022/10/13 02:13:01;;;;;;;33.20;26.63;;;12.50;99.90;;;;;;4996291;28;20830;-85
2022/10/13 02:15:32;;;;;;;37.73;27.60;;;12.40;99.90;;;;;;4996125;28;20455;-85
2022/10/13 02:18:01;;;;;;;36.70;25.10;;;12.60;99.90;;;;;;4995899;28;20443;-85
2022/10/13 02:20:29;;;;;;;32.67;27.27;;;12.50;99.90;;;;;;4995722;28;20506;-85
2022/10/13 02:22:59;;;;;;;31.83;24.47;;;12.50;99.90;;;;;;4995947;28;20447;-85
2022/10/13 02:25:27;;;;;;;38.03;26.63;;;12.40;99.90;;;;;;5001248;28;20447;-85
2022/10/13 02:27:54;;;;;;;33.73;25.93;;;12.40;99.90;;;;;;5011506;28;20551;-85
2022/10/13 02:30:22;;;;;;;38.13;25.60;;;12.40;99.90;;;;;;5012650;28;20558;-85
2022/10/13 02:32:49;;;;;;;28.97;24.97;;;12.50;99.90;;;;;;5002701;28;20451;-85
2022/10/13 02:35:17;;;;;;;34.17;24.10;;;12.50;99.90;;;;;;5000115;28;20974;-85
2022/10/13 02:37:44;;;;;;;29.53;24.23;;;12.60;99.90;;;;;;4995575;28;20975;-84
2022/10/13 02:40:12;;;;;;;32.63;24.00;;;12.60;99.90;;;;;;5011663;28;20474;-85
2022/10/13 02:42:39;;;;;;;31.63;24.77;;;12.60;99.90;;;;;;5000601;28;20443;-85
2022/10/13 02:45:07;;;;;;;28.30;23.53;;;12.70;99.90;;;;;;4995703;28;20447;-85
2022/10/13 02:47:34;;;;;;;28.23;24.80;;;12.70;99.90;;;;;;4995115;28;20458;-85
2022/10/13 02:50:01;;;;;;;36.93;27.63;;;12.80;99.90;;;;;;5018379;28;20482;-84
2022/10/13 02:52:29;;;;;;;29.87;24.97;;;12.80;99.90;;;;;;5018749;28;20452;-85
2022/10/13 02:54:55;;;;;;;32.83;23.50;;;12.80;99.90;;;;;;4998450;28;20796;-86
2022/10/13 02:57:22;;;;;;;28.13;23.97;;;12.90;99.90;;;;;;4994818;28;20511;-85
2022/10/13 02:59:49;;;;;;;38.00;24.90;;;12.90;99.90;;;;;;4995060;28;20482;-85
2022/10/13 03:02:17;;;;;;;26.67;23.33;;;12.80;99.90;;;;;;4994932;28;20952;-85
2022/10/13 03:04:44;;;;;;;32.10;23.83;;;12.80;99.90;;;;;;4994777;28;20444;-85
2022/10/13 03:07:11;;;;;;;31.40;24.57;;;12.80;99.90;;;;;;4994761;28;20455;-85
2022/10/13 03:09:39;;;;;;;28.90;22.50;;;12.80;99.90;;;;;;4994882;28;20494;-85
2022/10/13 03:12:06;;;;;;;33.20;23.57;;;12.80;99.90;;;;;;5010495;28;20440;-85
2022/10/13 03:14:33;;;;;;;35.40;24.70;;;12.80;99.90;;;;;;5013358;28;20801;-85
2022/10/13 03:17:01;;;;;;;34.30;25.27;;;12.80;99.90;;;;;;4995339;28;20455;-85
2022/10/13 03:19:27;;;;;;;32.23;23.77;;;12.90;99.90;;;;;;5013691;23;20490;-81
2022/10/13 03:21:54;;;;;;;31.40;23.97;;;12.90;99.90;;;;;;5061756;28;20444;-82
2022/10/13 03:24:21;;;;;;;27.30;22.33;;;12.90;99.90;;;;;;5062674;28;20441;-82
2022/10/13 03:26:49;;;;;;;29.20;23.30;;;13.00;99.90;;;;;;5064835;28;20441;-82
2022/10/13 03:29:18;;;;;;;29.60;24.53;;;13.10;99.90;;;;;;5062987;28;20508;-82
2022/10/13 03:31:45;;;;;;;28.87;23.20;;;13.10;99.90;;;;;;5042525;28;20542;-82
2022/10/13 03:34:13;;;;;;;31.97;23.80;;;13.20;99.90;;;;;;5041468;28;20453;-82
2022/10/13 03:36:40;;;;;;;27.37;22.50;;;13.20;99.90;;;;;;5041070;28;20449;-82
2022/10/13 03:39:06;;;;;;;28.60;20.93;;;13.20;99.90;;;;;;5039633;28;20446;-82
2022/10/13 03:41:33;;;;;;;26.10;20.53;;;13.20;99.90;;;;;;5040029;28;20466;-82
2022/10/13 03:44:01;;;;;;;25.30;21.43;;;13.20;99.90;;;;;;5040774;28;20458;-82
2022/10/13 03:46:30;;;;;;;29.63;21.80;;;13.20;99.90;;;;;;5043992;28;20461;-82
2022/10/13 03:48:57;;;;;;;31.67;22.40;;;13.20;99.90;;;;;;5043236;28;20854;-82
2022/10/13 03:51:24;;;;;;;25.23;20.67;;;13.20;99.90;;;;;;5041079;28;20469;-83
2022/10/13 03:53:52;;;;;;;30.37;22.50;;;13.10;99.90;;;;;;5057372;28;20445;-82
2022/10/13 03:56:22;;;;;;;27.40;20.47;;;13.10;99.90;;;;;;5052681;28;20453;-81
2022/10/13 03:58:52;;;;;;;27.07;19.97;;;13.10;99.90;;;;;;5041174;28;20501;-80
2022/10/13 04:01:21;;;;;;;28.50;20.87;;;13.10;99.90;;;;;;5039492;28;20479;-83
2022/10/13 04:03:49;;;;;;;24.50;20.30;;;13.10;99.90;;;;;;5040086;28;20442;-82
2022/10/13 04:06:16;;;;;;;24.90;19.00;;;13.10;99.90;;;;;;5040636;28;20517;-81
2022/10/13 04:08:43;;;;;;;26.70;20.17;;;13.20;99.90;;;;;;5019223;28;20485;-82
2022/10/13 04:11:12;;;;;;;22.23;18.67;;;13.20;99.90;;;;;;5027128;28;20461;-82
2022/10/13 04:13:41;;;;;;;20.97;18.67;;;13.20;99.90;;;;;;5041045;28;20442;-81
2022/10/13 04:16:14;;;;;;;24.27;19.43;;;13.20;99.90;;;;;;5034202;28;20450;-82
2022/10/13 04:18:42;;;;;;;23.67;18.87;;;13.20;99.90;;;;;;5023067;28;20483;-82
2022/10/13 04:21:10;;;;;;;19.80;17.63;;;13.20;99.90;;;;;;5048791;28;20470;-82
2022/10/13 04:23:37;;;;;;;24.60;19.53;;;13.20;99.90;;;;;;5043460;28;20472;-82
2022/10/13 04:26:05;;;;;;;26.47;20.37;;;13.20;99.90;;;;;;5051265;28;20438;-82
2022/10/13 04:28:34;;;;;;;22.33;17.50;;;13.20;99.90;;;;;;5054809;28;20452;-81
2022/10/13 04:31:01;;;;;;;21.23;17.33;;;13.20;99.90;;;;;;5052855;28;20556;-82
2022/10/13 04:33:28;;;;;;;22.47;19.87;;;13.20;99.90;;;;;;5042373;28;20456;-82
2022/10/13 04:35:56;;;;;;;23.87;18.67;;;13.10;99.90;;;;;;5039046;28;20804;-81
2022/10/13 04:38:23;;;;;;;23.93;17.90;;;13.10;99.90;;;;;;5019530;28;20453;-82
2022/10/13 04:40:50;;;;;;;23.40;18.00;;;13.00;99.90;;;;;;5018170;28;21231;-81
2022/10/13 04:43:17;;;;;;;25.70;18.23;;;13.00;99.90;;;;;;5019204;28;20446;-82
2022/10/13 04:45:44;;;;;;;28.30;20.20;;;12.90;99.90;;;;;;5017489;28;20521;-81
2022/10/13 04:48:10;;;;;;;27.33;21.93;;;12.90;99.90;;;;;;5019972;28;20454;-82
2022/10/13 04:50:37;;;;;;;26.50;20.20;;;12.90;99.90;;;;;;5019538;28;20979;-82
2022/10/13 04:53:05;;;;;;;31.70;21.60;;;12.90;99.90;;;;;;5027100;28;20458;-80
2022/10/13 04:55:34;;;;;;;24.87;20.03;;;12.80;99.90;;;;;;5027728;28;20457;-81
2022/10/13 04:58:01;;;;;;;24.67;20.90;;;12.80;99.90;;;;;;5025046;28;20442;-82
2022/10/13 05:00:28;;;;;;;32.30;23.40;;;12.80;99.90;;;;;;5023591;28;20927;-82
2022/10/13 05:02:54;;;;;;;31.93;22.43;;;12.80;99.90;;;;;;5023042;28;20431;-82
2022/10/13 05:05:21;;;;;;;24.97;21.27;;;12.80;99.90;;;;;;5022204;28;20506;-82
2022/10/13 05:07:48;;;;;;;23.67;20.40;;;12.80;99.90;;;;;;5022892;28;20449;-82
2022/10/13 05:10:16;;;;;;;28.57;21.07;;;12.80;99.90;;;;;;5027305;28;20486;-82
2022/10/13 05:12:43;;;;;;;31.50;21.33;;;12.80;99.90;;;;;;5024589;28;20450;-82
2022/10/13 05:15:10;;;;;;;25.40;19.50;;;12.70;99.90;;;;;;5023044;28;20464;-82
2022/10/13 05:17:37;;;;;;;28.23;20.87;;;12.70;99.90;;;;;;5025633;28;20476;-81
2022/10/13 05:20:04;;;;;;;25.77;17.87;;;12.70;99.90;;;;;;5021471;28;20478;-82
2022/10/13 05:22:31;;;;;;;22.10;18.13;;;12.70;99.90;;;;;;5020162;28;20437;-82
2022/10/13 05:24:57;;;;;;;22.13;19.07;;;12.70;99.90;;;;;;5021193;28;20442;-82
2022/10/13 05:27:25;;;;;;;26.20;19.40;;;12.70;99.90;;;;;;5027692;28;20443;-83
2022/10/13 05:29:52;;;;;;;25.07;19.37;;;12.80;99.90;;;;;;5025563;28;20471;-82
2022/10/13 05:32:19;;;;;;;26.73;19.40;;;12.70;99.90;;;;;;5025765;28;20435;-82
2022/10/13 05:34:48;;;;;;;27.97;19.77;;;12.80;99.90;;;;;;5024983;28;20446;-83
2022/10/13 05:37:15;;;;;;;24.13;19.47;;;12.90;99.90;;;;;;5025592;28;20441;-83
2022/10/13 05:39:42;;;;;;;28.67;21.10;;;13.00;99.90;;;;;;5025604;28;20490;-82
2022/10/13 05:42:09;;;;;;;22.70;18.40;;;13.00;99.90;;;;;;5026043;28;20958;-81
2022/10/13 05:44:37;;;;;;;26.07;18.10;;;13.10;99.90;;;;;;5028861;28;20446;-83
2022/10/13 05:47:04;;;;;;;24.77;18.10;;;13.10;99.90;;;;;;5030773;28;20450;-82
2022/10/13 05:49:31;;;;;;;24.97;18.10;;;13.20;99.90;;;;;;5028323;28;20466;-81
2022/10/13 05:52:01;;;;;;;29.30;18.47;;;13.20;99.90;;;;;;5036359;28;20498;-82
2022/10/13 05:54:30;;;;;;;36.10;26.83;;;13.20;99.90;;;;;;5035826;28;20450;-83
2022/10/13 05:57:01;;;;;;;32.00;18.73;;;13.20;99.90;;;;;;5027991;28;20438;-83
2022/10/13 05:59:30;;;;;;;27.87;19.80;;;13.20;99.90;;;;;;5029627;28;20478;-82
2022/10/13 06:01:58;;;;;;;29.87;19.53;;;13.20;99.90;;;;;;5041636;28;20448;-82
2022/10/13 06:04:30;;;;;;;30.67;18.97;;;13.20;99.90;;;;;;5046431;28;20449;-83
2022/10/13 06:06:56;;;;;;;30.37;19.30;;;13.20;99.90;;;;;;5044792;28;20938;-82
2022/10/13 06:09:23;;;;;;;29.73;20.67;;;13.30;99.90;;;;;;5045007;28;20548;-82
2022/10/13 06:11:50;;;;;;;29.10;18.70;;;13.30;99.90;;;;;;5045652;28;21061;-83
2022/10/13 06:14:17;;;;;;;23.40;18.00;;;13.30;99.90;;;;;;5045647;28;20544;-83
2022/10/13 06:16:43;;;;;;;25.93;17.53;;;13.40;99.90;;;;;;5045517;28;20542;-82
2022/10/13 06:19:12;;;;;;;32.43;19.93;;;13.40;99.90;;;;;;5045625;28;20482;-82
2022/10/13 06:21:38;;;;;;;30.80;22.10;;;13.50;99.90;;;;;;5046586;28;20441;-82
2022/10/13 06:24:05;;;;;;;28.23;21.63;;;13.50;99.90;;;;;;5046762;28;20442;-82
2022/10/13 06:26:32;;;;;;;25.83;21.57;;;13.60;99.90;;;;;;5049417;28;20449;-82
2022/10/13 06:28:59;;;;;;;26.43;20.40;;;13.60;99.90;;;;;;5049923;28;20429;-83
2022/10/13 06:31:26;;;;;;;32.30;20.53;;;13.70;99.90;;;;;;5049049;28;20469;-83
2022/10/13 06:33:52;;;;;;;22.87;19.27;;;13.70;99.90;;;;;;5049311;28;20464;-83
2022/10/13 06:36:20;;;;;;;31.53;20.93;;;13.80;99.90;;;;;;5047863;28;20451;-83
2022/10/13 06:38:47;;;;;;;30.80;21.17;;;13.90;99.90;;;;;;5042462;28;20453;-83
2022/10/13 06:41:14;;;;;;;25.70;20.30;;;13.90;99.90;;;;;;5045795;28;20481;-83
2022/10/13 06:43:41;;;;;;;32.30;21.40;;;13.80;99.90;;;;;;5046951;28;20460;-81
2022/10/13 06:46:08;;;;;;;33.30;22.60;;;13.90;99.90;;;;;;5045885;28;20446;-82
2022/10/13 06:48:35;;;;;;;33.23;22.50;;;13.90;99.90;;;;;;5043489;28;20451;-82
2022/10/13 06:51:02;;;;;;;33.80;19.80;;;14.00;99.90;;;;;;5042826;28;20472;-83
2022/10/13 06:53:31;;;;;;;30.80;19.60;;;14.00;99.90;;;;;;5042035;28;20444;-83
2022/10/13 06:55:58;;;;;;;28.90;19.20;;;14.00;99.90;;;;;;5058383;28;20449;-80
2022/10/13 06:58:25;;;;;;;25.07;19.20;;;14.00;99.90;;;;;;5055163;28;20437;-81
2022/10/13 07:00:52;;;;;;;24.17;18.90;;;14.10;99.90;;;;;;5050970;28;20491;-80
2022/10/13 07:03:19;;;;;;;24.10;18.23;;;14.10;99.90;;;;;;5067864;28;20459;-81
2022/10/13 07:05:45;;;;;;;32.13;18.00;;;14.10;99.90;;;;;;5075831;28;20445;-81
2022/10/13 07:08:12;;;;;;;24.20;18.20;;;14.10;99.90;;;;;;5068392;28;20453;-83
2022/10/13 07:10:41;;;;;;;22.03;17.10;;;14.20;99.90;;;;;;5068360;28;20473;-78
2022/10/13 07:13:08;;;;;;;20.80;17.00;;;14.20;99.90;;;;;;5067819;28;20441;-79
2022/10/13 07:15:37;;;;;;;20.37;16.33;;;14.20;99.90;;;;;;5066934;28;20440;-79
2022/10/13 07:18:04;;;;;;;21.40;16.97;;;14.20;99.90;;;;;;5064341;28;20445;-79
2022/10/13 07:20:31;;;;;;;23.70;17.67;;;14.30;99.90;;;;;;5063077;28;20725;-79
2022/10/13 07:22:58;;;;;;;22.80;19.03;;;14.30;99.90;;;;;;5064809;28;20880;-78
2022/10/13 07:25:25;;;;;;;30.70;19.37;;;14.40;99.90;;;;;;5066955;28;20459;-79
2022/10/13 07:27:53;;;;;;;31.77;19.87;;;14.50;99.90;;;;;;5060421;28;20462;-79
2022/10/13 07:30:19;;;;;;;26.50;16.80;;;14.50;99.90;;;;;;5043025;28;20997;-81
2022/10/13 07:32:46;;;;;;;24.20;18.30;;;14.50;99.90;;;;;;5041519;28;20464;-82
2022/10/13 07:35:13;;;;;;;23.10;18.97;;;14.40;99.90;;;;;;5041057;28;20452;-81
2022/10/13 07:37:40;;;;;;;25.90;18.30;;;14.50;99.90;;;;;;5039680;28;20442;-81
2022/10/13 07:40:08;;;;;;;28.33;17.40;;;14.60;99.90;;;;;;5044993;28;20481;-82
2022/10/13 07:42:35;;;;;;;23.20;17.40;;;14.70;99.90;;;;;;5061484;28;20449;-81
2022/10/13 07:45:03;;;;;;;23.70;18.33;;;14.80;99.90;;;;;;5061373;28;20444;-82
2022/10/13 07:47:30;;;;;;;20.93;17.27;;;14.90;99.90;;;;;;5061235;28;20821;-81
2022/10/13 07:49:56;;;;;;;21.93;18.50;;;15.00;99.90;;;;;;5061212;28;20503;-81
2022/10/13 07:52:23;;;;;;;20.40;18.07;;;15.00;99.90;;;;;;5060461;28;20454;-82
2022/10/13 07:54:50;;;;;;;18.63;16.60;;;15.20;99.90;;;;;;5064163;28;20429;-81
2022/10/13 07:57:18;;;;;;;19.50;16.83;;;15.40;99.90;;;;;;5062118;28;20449;-82
2022/10/13 07:59:45;;;;;;;20.43;18.20;;;15.60;99.90;;;;;;5063117;28;20511;-81
2022/10/13 08:02:13;;;;;;;20.60;15.50;;;15.80;99.90;;;;;;5061383;28;20448;-82
2022/10/13 08:04:40;;;;;;;19.80;17.63;;;15.90;99.90;;;;;;5067390;28;20508;-81
2022/10/13 08:07:06;;;;;;;20.60;17.00;;;16.00;99.90;;;;;;5067270;28;20471;-81
2022/10/13 08:09:34;;;;;;;23.30;17.27;;;16.30;99.90;;;;;;5057139;28;20487;-81
2022/10/13 08:12:01;;;;;;;22.90;15.27;;;16.40;99.90;;;;;;5057092;28;20444;-82
2022/10/13 08:14:28;;;;;;;22.70;16.13;;;16.60;99.90;;;;;;5056985;28;20459;-82
2022/10/13 08:16:54;;;;;;;18.07;15.50;;;16.90;99.90;;;;;;5058990;28;20455;-81
2022/10/13 08:19:25;;;;;;;19.80;15.50;;;16.80;99.90;;;;;;5060043;28;20455;-82
2022/10/13 08:21:52;;;;;;;16.93;14.30;;;16.70;99.90;;;;;;5060629;28;20913;-82
2022/10/13 08:24:21;;;;;;;19.77;15.40;;;16.60;99.90;;;;;;5060203;28;20457;-81
2022/10/13 08:26:48;;;;;;;17.07;13.63;;;16.70;99.90;;;;;;5060843;28;20925;-82
2022/10/13 08:29:16;;;;;;;18.43;15.33;;;16.60;99.90;;;;;;5058287;28;20528;-82
2022/10/13 08:31:43;;;;;;;17.70;15.33;;;16.60;99.90;;;;;;5071681;28;20436;-81
2022/10/13 08:34:10;;;;;;;17.70;14.90;;;16.60;99.90;;;;;;5068030;28;20436;-82
2022/10/13 08:36:39;;;;;;;17.60;13.00;;;16.60;99.90;;;;;;5066024;28;21105;-82
2022/10/13 08:39:07;;;;;;;15.63;13.60;;;16.70;99.90;;;;;;5063814;28;20482;-83
2022/10/13 08:41:38;;;;;;;19.00;13.17;;;16.70;99.90;;;;;;5060145;28;20906;-82
2022/10/13 08:44:07;;;;;;;19.63;13.97;;;16.90;99.90;;;;;;5060232;28;20433;-82
2022/10/13 08:46:46;;;;;;;15.93;12.57;;;16.90;99.90;;;;;;5059322;28;20441;-82
2022/10/13 08:49:16;;;;;;;20.07;14.60;;;16.80;99.90;;;;;;5059319;28;20460;-81
2022/10/13 08:51:44;;;;;;;19.83;13.60;;;16.90;99.90;;;;;;5059614;28;20453;-82
2022/10/13 08:54:14;;;;;;;14.77;13.03;;;16.90;99.90;;;;;;5069155;28;20453;-81
2022/10/13 08:56:42;;;;;;;18.10;13.93;;;17.00;99.90;;;;;;5068774;28;20462;-82
2022/10/13 08:59:15;;;;;;;17.33;14.60;;;17.20;99.90;;;;;;5061611;28;20817;-81
2022/10/13 09:01:47;;;;;;;17.70;13.13;;;17.20;99.90;;;;;;5059906;28;20488;-81
2022/10/13 09:04:27;;;;;;;17.20;12.63;;;17.40;99.90;;;;;;5059983;28;20834;-80
2022/10/13 09:06:58;;;;;;;17.27;12.30;;;17.40;99.90;;;;;;5057035;28;20465;-80
2022/10/13 09:09:25;;;;;;;13.43;11.53;;;17.50;99.90;;;;;;5057237;28;20841;-81
2022/10/13 09:11:52;;;;;;;19.70;12.87;;;17.60;99.90;;;;;;5059186;28;20442;-81
2022/10/13 09:14:26;;;;;;;12.63;11.10;;;17.70;99.90;;;;;;5070959;28;20439;-79
2022/10/13 09:16:54;;;;;;;13.00;11.70;;;18.00;99.90;;;;;;5076758;28;20453;-80
2022/10/13 09:19:23;;;;;;;16.70;12.17;;;18.10;99.90;;;;;;5067449;28;20514;-82
2022/10/13 09:21:52;;;;;;;16.33;11.10;;;18.20;99.90;;;;;;5064679;28;20486;-81
2022/10/13 09:24:22;;;;;;;15.77;11.43;;;18.20;99.90;;;;;;5066300;28;20444;-82
2022/10/13 09:26:51;;;;;;;15.87;12.37;;;18.30;99.90;;;;;;5065979;28;20445;-82
2022/10/13 09:32:07;;;;;;;13.20;11.50;;;18.10;99.90;;;;;;5039443;28;20496;-85
2022/10/13 09:34:34;;;;;;;15.53;11.27;;;18.20;99.90;;;;;;5048376;28;20444;-83
2022/10/13 09:37:05;;;;;;;19.60;12.60;;;18.30;99.90;;;;;;5058129;28;20441;-84
2022/10/13 09:39:34;;;;;;;11.27;9.53;;;18.20;99.90;;;;;;5062064;28;20466;-84
2022/10/13 09:42:22;;;;;;;14.53;10.87;;;18.00;99.90;;;;;;5058034;28;20484;-86
2022/10/13 09:44:57;;;;;;;11.20;10.00;;;18.00;99.90;;;;;;5074253;28;20445;-86
2022/10/13 09:47:25;;;;;;;11.87;8.77;;;17.90;99.90;;;;;;5076399;28;20435;-86
2022/10/13 09:50:15;;;;;;;12.03;9.37;;;18.00;99.90;;;;;;5059537;28;20470;-86
2022/10/13 09:52:45;;;;;;;14.13;9.43;;;17.90;99.90;;;;;;5056511;28;20445;-84
2022/10/13 09:55:30;;;;;;;14.00;10.10;;;17.90;99.90;;;;;;5057341;28;20805;-85
2022/10/13 09:58:03;;;;;;;11.13;8.77;;;17.90;99.90;;;;;;5060652;28;20428;-84
2022/10/13 10:00:31;;;;;;;10.77;8.00;;;17.90;99.90;;;;;;5062772;28;20514;-84
2022/10/13 10:03:02;;;;;;;15.03;8.33;;;17.90;99.90;;;;;;5056848;28;20819;-84
2022/10/13 10:05:40;;;;;;;10.70;9.30;;;18.20;99.90;;;;;;5056319;28;20467;-85
2022/10/13 10:08:15;;;;;;;14.23;9.87;;;18.20;99.90;;;;;;5056625;28;20447;-85
2022/10/13 10:10:44;;;;;;;13.97;8.53;;;18.60;99.90;;;;;;5060278;28;20460;-86
2022/10/13 10:13:12;;;;;;;16.83;8.00;;;18.90;99.90;;;;;;5059448;28;20547;-85
2022/10/13 10:15:55;;;;;;;11.13;8.33;;;19.00;99.90;;;;;;5059396;28;20452;-85
2022/10/13 10:18:31;;;;;;;12.77;7.77;;;19.00;99.90;;;;;;5059539;28;20445;-85
2022/10/13 10:21:06;;;;;;;10.17;8.07;;;18.70;99.90;;;;;;5058961;28;20480;-84
2022/10/13 10:23:43;;;;;;;12.83;8.87;;;18.70;99.90;;;;;;5069526;28;20448;-84
2022/10/13 10:26:16;;;;;;;10.63;8.90;;;18.60;99.90;;;;;;5074135;28;20444;-84
2022/10/13 10:28:56;;;;;;;10.80;8.50;;;18.60;99.90;;;;;;5070855;28;20429;-85
2022/10/13 10:31:35;;;;;;;11.57;8.37;;;18.50;99.90;;;;;;5068602;28;20470;-86
2022/10/13 10:34:19;;;;;;;11.17;8.80;;;18.40;99.90;;;;;;5078314;28;20469;-87
2022/10/13 10:36:53;;;;;;;12.13;8.00;;;18.30;99.90;;;;;;5079317;28;20807;-89
2022/10/13 10:39:29;;;;;;;12.13;8.87;;;18.30;99.90;;;;;;5078930;28;20445;-85
2022/10/13 10:42:03;;;;;;;10.03;8.10;;;18.20;99.90;;;;;;5063655;28;20482;-85
2022/10/13 10:44:32;;;;;;;13.77;7.90;;;18.10;99.90;;;;;;5061918;28;20445;-83
2022/10/13 10:47:02;;;;;;;12.67;7.80;;;18.10;99.90;;;;;;5062122;28;20451;-85
2022/10/13 10:49:32;;;;;;;9.37;6.87;;;18.10;99.90;;;;;;5062658;28;20450;-83
2022/10/13 10:52:01;;;;;;;11.23;7.83;;;18.10;99.90;;;;;;5067487;28;20455;-83
2022/10/13 10:54:40;;;;;;;10.00;7.87;;;18.10;99.90;;;;;;5078513;28;20448;-83
2022/10/13 10:57:14;;;;;;;12.80;7.67;;;18.20;99.90;;;;;;5064852;28;20448;-84
2022/10/13 10:59:55;;;;;;;7.77;7.00;;;18.30;99.90;;;;;;5061043;28;20476;-84
2022/10/13 11:02:37;;;;;;;8.90;7.47;;;18.50;99.90;;;;;;5060976;28;20480;-84
2022/10/13 11:05:05;;;;;;;8.50;6.33;;;18.50;99.90;;;;;;5061008;28;20448;-83
2022/10/13 11:07:55;;;;;;;10.40;7.20;;;18.70;99.90;;;;;;5059048;28;20968;-83
2022/10/13 11:10:23;;;;;;;10.60;7.70;;;18.80;99.90;;;;;;5059743;28;20469;-85
2022/10/13 11:13:26;;;;;;;11.07;7.90;;;18.80;99.90;;;;;;5059337;28;20867;-86
2022/10/13 11:15:54;;;;;;;10.30;6.97;;;19.00;99.90;;;;;;5062334;28;20453;-84
2022/10/13 11:19:04;;;;;;;11.67;6.80;;;19.00;99.90;;;;;;5065462;28;20451;-87
2022/10/13 11:22:16;;;;;;;11.53;7.63;;;19.00;99.90;;;;;;5068609;28;20480;-83
2022/10/13 11:24:58;;;;;;;8.47;6.83;;;19.10;99.90;;;;;;5032733;28;20444;-84
2022/10/13 11:27:38;;;;;;;9.60;7.60;;;19.50;99.90;;;;;;5058130;28;20455;-85
2022/10/13 11:30:26;;;;;;;9.03;6.60;;;19.50;99.90;;;;;;5059212;28;20480;-86
2022/10/13 11:32:57;;;;;;;13.73;7.70;;;19.40;99.90;;;;;;5059257;28;20451;-84
2022/10/13 11:35:27;;;;;;;10.50;7.70;;;19.20;99.90;;;;;;5059324;28;20429;-84
2022/10/13 11:38:13;;;;;;;9.93;8.13;;;19.10;99.90;;;;;;5059207;28;20436;-85
2022/10/13 11:40:47;;;;;;;9.33;7.33;;;19.00;99.90;;;;;;5066746;28;20514;-85
2022/10/13 11:43:43;;;;;;;9.93;6.83;;;19.10;99.90;;;;;;5061537;28;20443;-84
2022/10/13 11:46:23;;;;;;;7.50;6.60;;;19.10;99.90;;;;;;5054351;28;20445;-86
2022/10/13 11:49:21;;;;;;;11.73;7.27;;;19.30;99.90;;;;;;5072760;28;20455;-86
2022/10/13 11:52:12;;;;;;;8.40;7.00;;;19.40;99.90;;;;;;5068972;28;20505;-86
2022/10/13 11:54:46;;;;;;;8.20;7.20;;;19.40;99.90;;;;;;5064885;28;20449;-85
2022/10/13 11:57:24;;;;;;;9.17;7.07;;;19.30;99.90;;;;;;5062833;28;20450;-85
2022/10/13 11:59:54;;;;;;;14.63;8.50;;;19.30;99.90;;;;;;5072839;28;20436;-87
2022/10/13 12:02:23;;;;;;;11.73;7.80;;;19.30;99.90;;;;;;5071476;28;20480;-85
2022/10/13 12:05:03;;;;;;;12.30;7.93;;;19.30;99.90;;;;;;5061489;28;20448;-83
2022/10/13 12:07:35;;;;;;;10.03;6.30;;;19.40;99.90;;;;;;5058370;28;20453;-86
2022/10/13 12:10:05;;;;;;;12.03;7.63;;;19.60;99.90;;;;;;5059774;28;20465;-85
2022/10/13 12:12:32;;;;;;;11.60;6.97;;;19.80;99.90;;;;;;5065423;28;20440;-86
2022/10/13 12:14:59;;;;;;;8.37;6.60;;;19.90;99.90;;;;;;5066188;28;20833;-84
2022/10/13 12:17:31;;;;;;;8.73;6.90;;;19.90;99.90;;;;;;5063007;28;20460;-84
2022/10/13 12:20:01;;;;;;;9.33;6.70;;;20.10;99.90;;;;;;5061919;28;20471;-83
2022/10/13 12:22:28;;;;;;;6.97;6.17;;;20.30;99.90;;;;;;5075297;28;20552;-83
2022/10/13 12:25:00;;;;;;;7.47;6.40;;;20.50;99.90;;;;;;5073607;28;20445;-84
2022/10/13 12:27:28;;;;;;;8.73;7.00;;;20.20;99.90;;;;;;5074325;28;20433;-84
2022/10/13 12:29:55;;;;;;;11.23;7.20;;;20.20;99.90;;;;;;5066512;28;20992;-86
2022/10/13 12:32:23;;;;;;;12.20;6.87;;;20.10;99.90;;;;;;5060252;28;20440;-85
2022/10/13 12:34:50;;;;;;;12.30;8.70;;;20.40;99.90;;;;;;5060854;28;21007;-85
2022/10/13 12:37:28;;;;;;;9.70;6.90;;;20.70;99.90;;;;;;5059286;28;20463;-86
2022/10/13 12:39:56;;;;;;;9.53;7.83;;;21.00;99.90;;;;;;5059372;28;20496;-85
2022/10/13 12:42:27;;;;;;;8.80;6.50;;;21.40;99.90;;;;;;5059481;28;20485;-85
2022/10/13 12:44:54;;;;;;;8.83;7.30;;;21.70;99.90;;;;;;5060066;28;20528;-85
2022/10/13 12:47:45;;;;;;;11.80;6.77;;;22.30;99.60;;;;;;5070066;28;20440;-83
2022/10/13 12:50:37;;;;;;;11.87;7.60;;;22.30;97.60;;;;;;5069018;28;20861;-83